Time;durP1;ratioP1;P1;durP2;ratioP2;P2;SDS_P1;SDS_P2;PMS_P1;PMS_P2;Temp;Humidity;BMP_temperature;BMP_pressure;BME280_temperature;BME280_humidity;BME280_pressure;Samples;Min_cycle;Max_cycle;Signal;HPM_P1;HPM_P2
2023/05/16 00:01:01;;;;;;;15.52;2.65;;;;;;;7.26;100.00;101883.00;4995261;28;20045;-42
2023/05/16 00:03:26;;;;;;;9.48;2.47;;;;;;;7.62;100.00;101942.25;4986896;28;20051;-42
2023/05/16 00:05:52;;;;;;;11.27;2.72;;;;;;;7.75;100.00;101955.34;4976172;28;20074;-42
2023/05/16 00:08:17;;;;;;;12.13;2.70;;;;;;;7.58;100.00;101919.59;4975537;28;20398;-44
2023/05/16 00:10:42;;;;;;;9.90;2.17;;;;;;;7.72;100.00;101954.47;4975908;28;20494;-42
2023/05/16 00:13:09;;;;;;;12.63;2.25;;;;;;;7.85;100.00;101985.03;4975900;28;20478;-42
2023/05/16 00:15:34;;;;;;;12.73;3.00;;;;;;;7.44;100.00;101922.25;4975124;28;20130;-43
2023/05/16 00:18:00;;;;;;;13.98;2.92;;;;;;;7.76;100.00;101980.66;4975745;28;20137;-42
2023/05/16 00:20:26;;;;;;;13.18;2.50;;;;;;;7.62;100.00;101965.84;4986057;28;20049;-41
2023/05/16 00:22:52;;;;;;;10.65;2.35;;;;;;;7.43;100.00;101941.44;4995220;28;20038;-41
2023/05/16 00:25:17;;;;;;;14.27;2.45;;;;;;;7.32;100.00;101927.50;4995166;28;20027;-43
2023/05/16 00:27:43;;;;;;;17.00;3.40;;;;;;;7.56;100.00;101982.44;4977531;28;20073;-42
2023/05/16 00:30:08;;;;;;;9.68;3.03;;;;;;;7.26;100.00;101932.75;4994921;28;20030;-43
2023/05/16 00:32:35;;;;;;;14.63;3.53;;;;;;;7.60;100.00;101997.31;4993675;28;20064;-42
2023/05/16 00:35:00;;;;;;;12.80;2.72;;;;;;;7.56;100.00;101989.47;4977626;28;20057;-42
2023/05/16 00:37:25;;;;;;;13.77;3.35;;;;;;;7.52;100.00;101985.97;4979993;28;20478;-45
2023/05/16 00:39:51;;;;;;;14.73;3.47;;;;;;;7.53;100.00;101979.00;4975586;28;20043;-43
2023/05/16 00:42:18;;;;;;;14.57;2.55;;;;;;;7.29;100.00;101951.97;4958072;28;20134;-46
2023/05/16 00:44:44;;;;;;;8.77;2.65;;;;;;;7.61;100.00;101990.31;4975242;28;20042;-43
2023/05/16 00:47:10;;;;;;;12.25;2.70;;;;;;;7.54;100.00;101975.47;4974994;28;20046;-46
2023/05/16 00:49:35;;;;;;;16.67;2.88;;;;;;;7.23;100.00;101915.31;4975250;28;20130;-41
2023/05/16 00:52:01;;;;;;;15.77;3.92;;;;;;;7.34;100.00;101933.59;4963238;28;20085;-44
2023/05/16 00:54:28;;;;;;;12.70;2.78;;;;;;;7.57;100.00;101986.81;4994555;28;20045;-45
2023/05/16 00:56:54;;;;;;;12.93;2.53;;;;;;;7.19;100.00;101921.41;4977282;28;20062;-40
2023/05/16 00:59:19;;;;;;;12.52;2.47;;;;;;;7.52;100.00;101985.97;4977064;28;20100;-42
2023/05/16 01:01:49;;;;;;;11.43;2.50;;;;;;;6.79;100.00;101869.97;4994060;28;20121;-44
2023/05/16 01:04:15;;;;;;;9.45;2.45;;;;;;;7.06;100.00;101922.31;4976873;28;20161;-40
2023/05/16 01:06:41;;;;;;;11.38;2.50;;;;;;;7.38;100.00;101982.50;4994137;28;20031;-41
2023/05/16 01:09:06;;;;;;;14.98;3.03;;;;;;;7.40;100.00;101983.38;4971783;28;20057;-40
2023/05/16 01:11:53;;;;;;;11.68;2.30;;;;;;;7.41;100.00;101990.38;4974873;28;20066;-42
2023/05/16 01:14:25;;;;;;;11.77;2.13;;;;;;;7.09;100.00;101926.66;4957379;28;20101;-42
2023/05/16 01:16:54;;;;;;;13.90;3.10;;;;;;;7.36;100.00;101997.31;4955812;28;20087;-41
2023/05/16 01:19:46;;;;;;;12.35;2.67;;;;;;;7.34;100.00;101986.00;4974902;28;20035;-42
2023/05/16 01:22:24;;;;;;;12.70;2.72;;;;;;;7.33;100.00;101990.34;4957226;28;20034;-43
2023/05/16 01:24:52;;;;;;;14.23;2.60;;;;;;;7.31;100.00;101991.22;4957507;28;20513;-43
2023/05/16 01:27:17;;;;;;;7.85;2.10;;;;;;;7.28;100.00;101993.84;4987674;28;20038;-42
2023/05/16 01:29:43;;;;;;;10.10;2.17;;;;;;;7.18;100.00;101968.56;4976521;28;20608;-41
2023/05/16 01:32:08;;;;;;;10.15;2.90;;;;;;;7.24;100.00;101990.34;4993911;28;20038;-42
2023/05/16 01:34:33;;;;;;;14.18;3.22;;;;;;;6.87;100.00;101925.78;4993624;28;20411;-43
2023/05/16 01:37:08;;;;;;;12.82;2.53;;;;;;;7.21;100.00;101994.72;4993975;28;20470;-41
2023/05/16 01:39:43;;;;;;;15.95;2.53;;;;;;;7.21;100.00;101984.25;4976260;28;20038;-43
2023/05/16 01:42:13;;;;;;;9.82;2.83;;;;;;;7.00;100.00;101960.69;4993939;28;20042;-42
2023/05/16 01:44:44;;;;;;;10.63;2.22;;;;;;;7.17;100.00;101996.47;4991668;28;20034;-39
2023/05/16 01:47:15;;;;;;;8.95;1.90;;;;;;;6.81;100.00;101933.63;4976297;28;20117;-40
2023/05/16 01:50:16;;;;;;;15.90;2.13;;;;;;;6.93;100.00;101962.44;4972977;28;20039;-42
2023/05/16 01:53:10;;;;;;;10.40;2.40;;;;;;;7.07;100.00;101994.72;4975750;28;20409;-42
2023/05/16 01:55:42;;;;;;;15.80;2.55;;;;;;;7.13;100.00;102002.59;4976608;28;20041;-42
2023/05/16 01:58:09;;;;;;;9.88;2.45;;;;;;;7.25;100.00;101993.84;4993197;28;20035;-42
2023/05/16 02:00:34;;;;;;;10.18;2.38;;;;;;;6.93;100.00;101923.19;4960621;28;20058;-41
2023/05/16 02:03:00;;;;;;;13.50;2.42;;;;;;;7.14;100.00;101964.19;4956839;28;20047;-43
2023/05/16 02:05:25;;;;;;;9.02;2.22;;;;;;;6.82;100.00;101929.28;4956525;28;20041;-41
2023/05/16 02:07:51;;;;;;;11.63;2.05;;;;;;;7.18;100.00;101997.38;4956592;28;20034;-42
2023/05/16 02:10:16;;;;;;;9.75;1.88;;;;;;;7.13;100.00;101994.72;4956589;28;20042;-40
2023/05/16 02:12:41;;;;;;;21.88;3.60;;;;;;;6.79;100.00;101941.50;4973748;28;20110;-40
2023/05/16 02:15:08;;;;;;;14.57;3.20;;;;;;;6.87;100.00;101954.59;4973855;28;20035;-41
2023/05/16 02:17:34;;;;;;;16.25;2.28;;;;;;;7.17;100.00;101996.47;4972529;28;20546;-42
2023/05/16 02:20:05;;;;;;;11.88;2.30;;;;;;;7.07;100.00;101989.50;4973843;28;20054;-40
2023/05/16 02:22:30;;;;;;;5.95;1.88;;;;;;;6.84;100.00;101938.00;4957310;28;20070;-41
2023/05/16 02:24:56;;;;;;;9.88;2.58;;;;;;;6.86;100.00;101942.34;4973689;28;20062;-42
2023/05/16 02:27:21;;;;;;;8.63;1.90;;;;;;;7.13;100.00;102010.44;4973457;28;20376;-41
2023/05/16 02:29:46;;;;;;;10.70;2.10;;;;;;;7.04;100.00;101999.97;4973498;28;20089;-42
2023/05/16 02:32:12;;;;;;;12.70;3.00;;;;;;;7.01;100.00;102009.53;4973330;28;20463;-43
2023/05/16 02:34:37;;;;;;;10.73;2.10;;;;;;;6.57;100.00;101941.47;4975595;28;20038;-42
2023/05/16 02:37:02;;;;;;;11.77;2.40;;;;;;;6.95;100.00;102018.28;4975863;28;20045;-41
2023/05/16 02:39:28;;;;;;;8.05;2.35;;;;;;;6.95;100.00;102009.53;4992920;28;20030;-42
2023/05/16 02:41:54;;;;;;;9.70;2.20;;;;;;;6.60;100.00;101944.97;4992692;28;20486;-40
2023/05/16 02:44:19;;;;;;;10.75;2.67;;;;;;;7.05;100.00;102011.31;4975593;28;20041;-44
2023/05/16 02:46:45;;;;;;;10.57;2.50;;;;;;;6.86;100.00;101959.84;4992859;28;20039;-42
2023/05/16 02:49:10;;;;;;;16.48;2.95;;;;;;;7.17;100.00;102001.72;4981878;28;20053;-41
2023/05/16 02:51:35;;;;;;;13.27;2.50;;;;;;;7.30;100.00;102016.53;4973333;28;20073;-41
2023/05/16 02:54:01;;;;;;;10.35;2.53;;;;;;;7.33;100.00;102019.16;4955966;28;20046;-41
2023/05/16 02:56:27;;;;;;;12.63;2.67;;;;;;;7.33;100.00;102013.91;4974472;28;20299;-43
2023/05/16 02:58:53;;;;;;;10.70;2.53;;;;;;;7.24;100.00;102013.91;4977188;28;20169;-41
2023/05/16 03:01:18;;;;;;;7.45;2.67;;;;;;;6.90;100.00;101969.41;4928230;28;20066;-41
2023/05/16 03:03:44;;;;;;;11.27;2.85;;;;;;;6.82;100.00;101958.06;4977039;28;20501;-42
2023/05/16 03:06:09;;;;;;;13.57;2.15;;;;;;;7.09;100.00;102020.91;4980813;28;20051;-42
2023/05/16 03:08:35;;;;;;;9.55;2.55;;;;;;;7.03;100.00;102031.38;4996323;28;20078;-42
2023/05/16 03:11:01;;;;;;;13.40;2.65;;;;;;;6.86;100.00;102009.56;4996146;28;20034;-42
2023/05/16 03:13:27;;;;;;;13.40;2.58;;;;;;;6.52;100.00;101953.66;4979194;28;20030;-43
2023/05/16 03:15:52;;;;;;;15.82;3.17;;;;;;;6.79;100.00;101990.34;4996413;28;20392;-41
2023/05/16 03:18:18;;;;;;;11.32;2.03;;;;;;;6.50;100.00;101939.72;4994655;28;20054;-43
2023/05/16 03:20:43;;;;;;;8.68;2.40;;;;;;;6.77;100.00;101989.47;4978902;28;20046;-43
2023/05/16 03:23:09;;;;;;;9.75;1.80;;;;;;;6.58;100.00;101964.13;4994421;28;20113;-43
2023/05/16 03:25:35;;;;;;;16.65;3.17;;;;;;;6.88;100.00;102027.00;4978825;28;20085;-42
2023/05/16 03:28:01;;;;;;;16.00;2.78;;;;;;;6.93;100.00;102034.84;4996135;28;20047;-41
2023/05/16 03:30:26;;;;;;;13.25;2.35;;;;;;;6.54;100.00;101967.59;4996339;28;20126;-41
2023/05/16 03:32:52;;;;;;;8.07;2.15;;;;;;;7.00;100.00;102041.84;4996210;28;20118;-42
2023/05/16 03:35:17;;;;;;;9.35;1.80;;;;;;;7.09;100.00;102047.09;4996117;28;20130;-41
2023/05/16 03:37:42;;;;;;;8.68;2.25;;;;;;;7.09;100.00;102026.16;4995841;28;20485;-43
2023/05/16 03:40:08;;;;;;;8.10;2.05;;;;;;;7.22;100.00;102056.69;4975502;28;20425;-43
2023/05/16 03:42:34;;;;;;;7.43;1.73;;;;;;;6.80;100.00;101982.47;4956337;29;20549;-41
2023/05/16 03:44:59;;;;;;;12.02;2.25;;;;;;;6.50;100.00;101926.66;4958639;28;20031;-43
2023/05/16 03:47:24;;;;;;;11.60;2.40;;;;;;;6.84;100.00;101995.56;4976374;28;20085;-42
2023/05/16 03:49:50;;;;;;;13.05;2.67;;;;;;;6.81;100.00;101980.75;4959066;28;20072;-42
2023/05/16 03:52:15;;;;;;;12.20;2.53;;;;;;;7.09;100.00;102034.00;4976316;28;20031;-41
2023/05/16 03:54:40;;;;;;;8.85;2.30;;;;;;;7.13;100.00;102051.44;4976157;28;20398;-42
2023/05/16 03:57:06;;;;;;;10.50;2.15;;;;;;;7.16;100.00;102054.06;4975469;28;20367;-43
2023/05/16 03:59:31;;;;;;;11.32;2.53;;;;;;;7.24;100.00;102052.31;4976417;28;20542;-42
2023/05/16 04:01:57;;;;;;;10.95;2.05;;;;;;;7.25;100.00;102026.16;4976234;28;20094;-42
2023/05/16 04:04:22;;;;;;;12.88;2.25;;;;;;;7.05;100.00;101980.78;4976117;28;20035;-40
2023/05/16 04:06:47;;;;;;;8.73;2.42;;;;;;;7.36;100.00;102032.25;4975527;28;20121;-41
2023/05/16 04:09:13;;;;;;;8.95;2.53;;;;;;;7.50;100.00;102054.97;4975978;28;20129;-42
2023/05/16 04:11:38;;;;;;;12.52;2.65;;;;;;;7.38;100.00;102006.09;4976128;28;20027;-42
2023/05/16 04:14:03;;;;;;;7.60;1.83;;;;;;;7.70;100.00;102066.31;4975050;28;20035;-42
2023/05/16 04:16:30;;;;;;;10.18;1.65;;;;;;;7.74;100.00;102052.31;4958809;28;20078;-42
2023/05/16 04:18:55;;;;;;;8.40;2.00;;;;;;;7.68;100.00;102058.44;4975648;28;20527;-43
2023/05/16 04:21:21;;;;;;;12.38;1.95;;;;;;;7.67;100.00;102061.94;4975758;28;20039;-42
2023/05/16 04:23:46;;;;;;;10.60;2.00;;;;;;;7.30;100.00;102010.44;4975588;28;20034;-41
2023/05/16 04:26:13;;;;;;;8.18;1.77;;;;;;;7.63;100.00;102067.16;4975464;28;20061;-43
2023/05/16 04:28:39;;;;;;;9.35;2.40;;;;;;;7.30;100.00;102019.16;4976066;28;20030;-41
2023/05/16 04:31:04;;;;;;;6.25;2.03;;;;;;;7.20;100.00;101996.47;4994762;28;20114;-41
2023/05/16 04:33:29;;;;;;;9.25;1.52;;;;;;;7.47;100.00;102042.75;4995031;28;20410;-42
2023/05/16 04:35:57;;;;;;;6.70;1.90;;;;;;;7.69;100.00;102064.56;4977480;28;20528;-41
2023/05/16 04:38:23;;;;;;;8.10;2.25;;;;;;;7.79;100.00;102061.06;4994806;28;20035;-43
2023/05/16 04:40:49;;;;;;;8.00;1.55;;;;;;;7.87;100.00;102061.91;4995079;28;20034;-43
2023/05/16 04:43:15;;;;;;;3.45;1.17;;;;;;;7.91;100.00;102048.78;4995066;28;20429;-40
2023/05/16 04:45:41;;;;;;;9.50;2.10;;;;;;;8.04;100.00;102044.38;4994980;28;20026;-40
2023/05/16 04:48:07;;;;;;;9.70;2.45;;;;;;;7.97;100.00;102012.94;4992991;28;20030;-41
2023/05/16 04:50:32;;;;;;;13.38;2.95;;;;;;;8.11;100.00;102035.63;4977151;28;20490;-42
2023/05/16 04:52:58;;;;;;;12.13;2.10;;;;;;;8.16;100.00;102026.00;4994521;28;20055;-43
2023/05/16 04:55:23;;;;;;;7.97;1.80;;;;;;;8.39;100.00;102074.03;4994584;28;20045;-42
2023/05/16 04:57:48;;;;;;;7.20;1.67;;;;;;;8.06;100.00;102010.28;4994495;28;20030;-41
2023/05/16 05:00:15;;;;;;;9.45;2.78;;;;;;;8.22;100.00;102039.09;4994189;28;20040;-43
2023/05/16 05:02:40;;;;;;;9.88;1.67;;;;;;;8.20;100.00;102030.31;4992923;28;20421;-43
2023/05/16 05:05:07;;;;;;;7.75;2.15;;;;;;;8.42;100.00;102067.88;4975250;28;20046;-42
2023/05/16 05:07:32;;;;;;;6.78;1.50;;;;;;;8.52;100.00;102093.22;4976630;28;20046;-41
2023/05/16 05:09:58;;;;;;;6.32;1.70;;;;;;;8.18;100.00;102031.22;4977251;28;20042;-42
2023/05/16 05:12:24;;;;;;;11.32;1.77;;;;;;;8.53;100.00;102080.94;4994483;28;20034;-41
2023/05/16 05:14:49;;;;;;;7.93;1.70;;;;;;;8.64;100.00;102093.16;4994608;28;20035;-43
2023/05/16 05:17:16;;;;;;;7.90;1.45;;;;;;;8.62;100.00;102078.28;4976437;28;20030;-41
2023/05/16 05:19:41;;;;;;;7.82;1.90;;;;;;;8.14;100.00;101982.28;4988058;28;20047;-42
2023/05/16 05:22:06;;;;;;;7.97;2.05;;;;;;;8.64;100.00;102064.28;4974549;28;20529;-42
2023/05/16 05:24:32;;;;;;;8.60;1.77;;;;;;;9.01;100.00;102102.59;4974221;28;20043;-43
2023/05/16 05:26:57;;;;;;;9.20;2.20;;;;;;;8.83;100.00;102052.81;4974726;28;20126;-43
2023/05/16 05:29:22;;;;;;;7.72;1.75;;;;;;;9.33;100.00;102106.75;4974260;28;20122;-42
2023/05/16 05:31:48;;;;;;;9.85;2.20;;;;;;;9.57;100.00;102112.69;4974671;28;20035;-43
2023/05/16 05:34:13;;;;;;;7.22;1.90;;;;;;;9.83;100.00;102116.88;4974377;28;20035;-41
2023/05/16 05:36:38;;;;;;;8.20;1.60;;;;;;;9.89;100.00;102112.44;4989500;28;20038;-41
2023/05/16 05:39:04;;;;;;;8.00;1.58;;;;;;;9.97;100.00;102126.38;4993525;28;20471;-42
2023/05/16 05:41:29;;;;;;;8.63;1.88;;;;;;;9.69;100.00;102047.78;4994015;28;20222;-40
2023/05/16 05:43:55;;;;;;;6.32;1.42;;;;;;;10.12;100.00;102117.47;4968275;28;20065;-41
2023/05/16 05:46:20;;;;;;;8.27;1.73;;;;;;;10.12;100.00;102120.97;4993684;28;20045;-42
2023/05/16 05:48:46;;;;;;;6.90;1.48;;;;;;;9.51;100.00;102023.41;4975880;28;20030;-41
2023/05/16 05:51:13;;;;;;;12.15;1.98;;;;;;;9.71;100.00;102070.53;4976095;28;21076;-42
2023/05/16 05:53:39;;;;;;;6.30;1.50;;;;;;;9.64;100.00;102071.44;4993532;28;20070;-41
2023/05/16 05:56:04;;;;;;;9.23;1.75;;;;;;;9.64;100.00;102087.22;4993633;28;20065;-44
2023/05/16 05:58:30;;;;;;;5.25;1.88;;;;;;;9.58;100.00;102092.53;4993592;28;20038;-41
2023/05/16 06:00:56;;;;;;;6.45;1.30;;;;;;;9.77;100.00;102140.59;4973545;28;20073;-41
2023/05/16 06:03:21;;;;;;;6.70;1.30;;;;;;;9.66;100.00;102129.28;4971981;28;20533;-44
2023/05/16 06:05:47;;;;;;;6.22;1.80;;;;;;;9.43;100.00;102075.13;4955488;28;20034;-41
2023/05/16 06:08:12;;;;;;;8.18;1.58;;;;;;;9.81;100.00;102124.75;4963885;28;20094;-39
2023/05/16 06:10:37;;;;;;;7.85;1.83;;;;;;;9.98;100.00;102143.03;4973992;28;20113;-42
2023/05/16 06:13:03;;;;;;;5.55;1.42;;;;;;;10.08;100.00;102148.19;4961870;28;20401;-42
2023/05/16 06:15:28;;;;;;;6.05;2.17;;;;;;;10.17;100.00;102163.03;4975748;28;20092;-41
2023/05/16 06:17:53;;;;;;;6.75;1.52;;;;;;;10.32;100.00;102144.47;4973593;28;20054;-41
2023/05/16 06:20:19;;;;;;;12.25;2.10;;;;;;;10.44;100.00;102143.47;4972690;28;20446;-39
2023/05/16 06:22:44;;;;;;;3.28;1.00;;;;;;;10.43;100.00;102150.50;4955260;28;20549;-42
2023/05/16 06:25:09;;;;;;;5.47;1.65;;;;;;;10.58;100.00;102150.31;4972991;28;20047;-42
2023/05/16 06:27:35;;;;;;;7.03;1.58;;;;;;;10.62;100.00;102153.78;4972598;28;20500;-41
2023/05/16 06:30:00;;;;;;;7.40;2.03;;;;;;;10.61;100.00;102157.31;4956415;28;20371;-39
2023/05/16 06:32:25;;;;;;;7.10;1.40;;;;;;;10.10;100.00;102066.59;4972621;28;20522;-42
2023/05/16 06:34:51;;;;;;;7.13;1.25;;;;;;;10.79;100.00;102159.72;4988993;28;20038;-41
2023/05/16 06:37:16;;;;;;;3.80;1.42;;;;;;;10.98;100.00;102171.75;4970633;28;20079;-42
2023/05/16 06:39:41;;;;;;;8.23;1.90;;;;;;;11.05;100.00;102162.91;4973543;28;20046;-40
2023/05/16 06:42:06;;;;;;;10.68;2.47;;;;;;;11.38;100.00;102172.09;4956780;28;20074;-42
2023/05/16 06:44:32;;;;;;;4.60;1.55;;;;;;;11.47;100.00;102166.66;4973549;28;20132;-43
2023/05/16 06:46:57;;;;;;;5.72;1.45;;;;;;;11.60;100.00;102176.16;4971435;28;20057;-40
2023/05/16 06:49:23;;;;;;;6.60;1.58;;;;;;;11.76;100.00;102179.47;4955869;28;20035;-41
2023/05/16 06:51:48;;;;;;;5.20;1.35;;;;;;;11.71;100.00;102176.00;4968022;28;20383;-40
2023/05/16 06:54:13;;;;;;;4.38;0.95;;;;;;;11.48;100.00;102157.88;4992645;28;20037;-40
2023/05/16 06:56:39;;;;;;;6.70;1.30;;;;;;;11.45;100.00;102165.84;4975509;28;20042;-40
2023/05/16 06:59:04;;;;;;;5.40;1.48;;;;;;;11.19;100.00;102120.53;4973573;28;20582;-40
2023/05/16 07:01:30;;;;;;;5.50;1.10;;;;;;;11.55;100.00;102153.38;4952902;28;20151;-42
2023/05/16 07:03:55;;;;;;;4.95;1.33;;;;;;;11.42;100.00;102138.63;4971706;28;20031;-40
2023/05/16 07:06:20;;;;;;;6.75;1.55;;;;;;;11.58;100.00;102191.13;4969277;28;20042;-41
2023/05/16 07:08:46;;;;;;;6.93;1.15;;;;;;;11.58;100.00;102140.16;4971168;28;20137;-40
2023/05/16 07:11:11;;;;;;;7.18;1.83;;;;;;;12.08;100.00;102184.22;4971089;28;20506;-42
2023/05/16 07:13:37;;;;;;;5.60;1.33;;;;;;;12.32;100.00;102192.53;4954773;28;20454;-42
2023/05/16 07:16:02;;;;;;;4.90;1.15;;;;;;;12.38;100.00;102173.06;4970877;28;20051;-40
2023/05/16 07:18:28;;;;;;;6.63;1.58;;;;;;;11.85;100.00;102135.31;4971763;28;20086;-42
2023/05/16 07:20:53;;;;;;;7.32;1.75;;;;;;;12.00;100.00;102207.19;4971202;28;20042;-43
2023/05/16 07:23:19;;;;;;;8.90;1.52;;;;;;;11.61;100.00;102204.28;4970449;28;20042;-41
2023/05/16 07:25:44;;;;;;;5.65;1.52;;;;;;;11.19;100.00;102149.53;4955070;28;20038;-44
2023/05/16 07:28:09;;;;;;;5.15;1.45;;;;;;;11.75;100.00;102198.81;4971523;28;20473;-41
2023/05/16 07:30:35;;;;;;;9.07;1.77;;;;;;;12.24;100.00;102204.16;4971173;28;20097;-39
2023/05/16 07:33:00;;;;;;;7.50;1.40;;;;;;;12.67;100.00;102198.94;4970218;28;20050;-38
2023/05/16 07:35:25;;;;;;;8.35;1.38;;;;;;;13.02;100.00;102199.09;4952429;28;20039;-41
2023/05/16 07:37:51;;;;;;;5.45;1.30;;;;;;;13.20;100.00;102192.59;4978433;28;20042;-43
2023/05/16 07:40:17;;;;;;;4.70;1.20;;;;;;;13.90;100.00;102216.50;4976414;28;20476;-39
2023/05/16 07:42:43;;;;;;;3.72;1.23;;;;;;;13.84;100.00;102213.13;4972837;28;20507;-41
2023/05/16 07:45:08;;;;;;;6.10;1.83;;;;;;;14.17;100.00;102222.91;4973845;28;20150;-41
2023/05/16 07:47:34;;;;;;;5.00;1.35;;;;;;;14.61;100.00;102198.81;4957561;28;20049;-41
2023/05/16 07:49:59;;;;;;;5.88;1.55;;;;;;;15.13;100.00;102160.16;4957202;28;20170;-42
2023/05/16 07:52:25;;;;;;;6.20;1.55;;;;;;;15.07;100.00;102173.63;4955832;28;20050;-40
2023/05/16 07:54:50;;;;;;;3.80;1.17;;;;;;;15.11;100.00;102169.97;4976206;28;20049;-40
2023/05/16 07:57:16;;;;;;;4.57;1.30;;;;;;;16.05;100.00;102222.75;4994005;28;20547;-39
2023/05/16 07:59:42;;;;;;;6.13;1.40;;;;;;;15.69;100.00;102232.75;4976789;28;20141;-41
2023/05/16 08:02:08;;;;;;;5.95;1.10;;;;;;;14.53;100.00;102184.03;4962964;28;20470;-41
2023/05/16 08:04:34;;;;;;;8.05;1.27;;;;;;;14.59;100.00;102228.91;4955769;28;20066;-40
2023/05/16 08:06:59;;;;;;;4.65;1.08;;;;;;;14.44;100.00;102229.31;4973945;28;20160;-42
2023/05/16 08:09:25;;;;;;;5.72;1.55;;;;;;;14.55;100.00;102175.13;4957157;28;20039;-41
2023/05/16 08:11:50;;;;;;;4.80;1.38;;;;;;;14.79;100.00;102237.19;4971951;28;20042;-39
2023/05/16 08:14:16;;;;;;;3.58;1.02;;;;;;;13.88;100.00;102180.41;4956728;28;20525;-40
2023/05/16 08:16:41;;;;;;;4.75;1.77;;;;;;;13.92;100.00;102219.13;4973888;28;20037;-40
2023/05/16 08:19:06;;;;;;;3.70;1.40;;;;;;;13.56;100.00;102231.44;4973039;28;20051;-40
2023/05/16 08:21:32;;;;;;;2.53;1.05;;;;;;;13.83;100.00;102238.75;4974096;28;20098;-38
2023/05/16 08:23:57;;;;;;;4.68;1.20;;;;;;;14.68;100.00;102239.25;4953383;28;20070;-40
2023/05/16 08:26:22;;;;;;;6.03;1.20;;;;;;;14.67;100.00;102183.63;4972763;28;20038;-42
2023/05/16 08:28:48;;;;;;;8.13;1.80;;;;;;;14.30;100.00;102187.25;4972602;28;20037;-39
2023/05/16 08:31:14;;;;;;;4.40;1.27;;;;;;;14.33;100.00;102175.75;4974085;28;20110;-39
2023/05/16 08:33:39;;;;;;;5.97;1.13;;;;;;;14.90;100.00;102231.56;4973970;28;20081;-41
2023/05/16 08:36:05;;;;;;;2.88;1.25;;;;;;;15.50;100.00;102239.56;4973794;28;20038;-41
2023/05/16 08:38:30;;;;;;;5.05;1.40;;;;;;;15.05;100.00;102247.06;4972819;28;20476;-41
2023/05/16 08:40:56;;;;;;;5.30;1.23;;;;;;;14.77;100.00;102178.03;4971506;28;20467;-42
2023/05/16 08:43:21;;;;;;;6.53;1.15;;;;;;;15.44;100.00;102215.84;4972539;28;20090;-40
2023/05/16 08:45:47;;;;;;;5.05;1.50;;;;;;;15.89;100.00;102211.75;4954160;28;20078;-41
2023/05/16 08:48:14;;;;;;;4.45;1.23;;;;;;;15.97;100.00;102164.56;4946529;28;20114;-43
2023/05/16 08:50:41;;;;;;;3.45;1.25;;;;;;;16.58;100.00;102218.28;4954330;28;20091;-40
2023/05/16 08:53:08;;;;;;;3.80;1.20;;;;;;;16.36;100.00;102196.00;4966937;28;20038;-42
2023/05/16 08:55:34;;;;;;;9.73;1.58;;;;;;;15.70;100.00;102247.78;4973384;28;20537;-41
2023/05/16 08:58:00;;;;;;;4.82;1.20;;;;;;;15.43;100.00;102241.50;4968178;28;20031;-41
2023/05/16 09:00:26;;;;;;;4.50;1.35;;;;;;;15.97;100.00;102195.53;4971358;28;20209;-41
2023/05/16 09:02:52;;;;;;;5.55;1.20;;;;;;;16.24;100.00;102264.56;4969389;28;20078;-42
2023/05/16 09:05:17;;;;;;;4.63;1.17;;;;;;;15.99;100.00;102194.59;4971831;28;20042;-40
2023/05/16 09:07:44;;;;;;;5.22;1.08;;;;;;;16.62;100.00;102243.81;4962032;28;20033;-40
2023/05/16 09:10:10;;;;;;;4.45;1.50;;;;;;;16.77;100.00;102203.41;4971453;28;20066;-44
2023/05/16 09:12:36;;;;;;;4.95;1.55;;;;;;;16.32;100.00;102259.00;4955538;28;20178;-41
2023/05/16 09:15:03;;;;;;;4.55;0.98;;;;;;;15.99;100.00;102261.00;4973251;28;20063;-42
2023/05/16 09:17:37;;;;;;;5.47;1.63;;;;;;;16.31;100.00;102257.28;4948282;28;20510;-42
2023/05/16 09:20:13;;;;;;;6.05;1.27;;;;;;;16.93;100.00;102228.50;4912316;29;20046;-42
2023/05/16 09:22:39;;;;;;;3.92;1.15;;;;;;;17.07;100.00;102274.09;4947830;28;20486;-43
2023/05/16 09:25:05;;;;;;;3.75;1.10;;;;;;;17.75;100.00;102254.63;4934313;29;20176;-40
2023/05/16 09:27:31;;;;;;;4.03;1.00;;;;;;;18.40;100.00;102268.81;4934660;29;20035;-42
2023/05/16 09:29:57;;;;;;;3.33;1.00;;;;;;;18.38;100.00;102272.47;4934494;29;20039;-40
2023/05/16 09:32:36;;;;;;;7.88;1.73;;;;;;;17.69;100.00;102263.75;4936616;29;20074;-42
2023/05/16 09:35:02;;;;;;;4.82;1.23;;;;;;;17.35;100.00;102261.50;4928659;29;20051;-42
2023/05/16 09:37:29;;;;;;;3.75;1.17;;;;;;;16.44;100.00;102228.47;4934240;29;20043;-41
2023/05/16 09:39:54;;;;;;;4.60;1.20;;;;;;;16.67;100.00;102256.03;4934398;29;20035;-39
2023/05/16 09:42:21;;;;;;;3.38;0.95;;;;;;;16.41;100.00;102271.97;4901244;29;20395;-42
2023/05/16 09:44:51;;;;;;;4.45;1.00;;;;;;;16.79;100.00;102244.97;4933683;29;20069;-40
2023/05/16 09:47:17;;;;;;;5.00;0.95;;;;;;;15.75;100.00;102229.91;4934329;29;20095;-41
2023/05/16 09:49:44;;;;;;;4.85;1.15;;;;;;;16.01;100.00;102221.97;4963796;28;20034;-42
2023/05/16 09:52:09;;;;;;;4.32;1.13;;;;;;;17.00;100.00;102267.25;4972699;28;20038;-41
2023/05/16 09:54:35;;;;;;;3.13;1.10;;;;;;;17.76;100.00;102269.69;4972585;28;20038;-40
2023/05/16 09:57:00;;;;;;;3.42;1.00;;;;;;;17.82;100.00;102290.78;4972567;28;20034;-42
2023/05/16 09:59:29;;;;;;;7.30;1.30;;;;;;;17.93;100.00;102278.75;4972667;28;20098;-42
2023/05/16 10:01:57;;;;;;;4.10;0.93;;;;;;;18.61;100.00;102251.06;4972517;28;20474;-41
2023/05/16 10:04:23;;;;;;;4.72;1.25;;;;;;;17.78;100.00;102235.88;4970764;28;20118;-44
2023/05/16 10:06:51;;;;;;;4.20;0.88;;;;;;;18.00;100.00;102242.09;4954763;28;20469;-39
2023/05/16 10:09:17;;;;;;;4.95;1.17;;;;;;;18.06;100.00;102283.59;4955159;28;20049;-40
2023/05/16 10:11:43;;;;;;;5.88;1.15;;;;;;;17.80;100.00;102266.88;4955012;28;20035;-42
2023/05/16 10:14:10;;;;;;;3.00;0.95;;;;;;;18.53;100.00;102279.88;4972150;28;20121;-40
2023/05/16 10:16:36;;;;;;;3.75;1.13;;;;;;;18.21;100.00;102280.31;4955247;28;20426;-41
2023/05/16 10:19:02;;;;;;;4.55;1.20;;;;;;;17.66;100.00;102279.00;4987376;28;20109;-41
2023/05/16 10:21:28;;;;;;;3.58;1.40;;;;;;;17.32;100.00;102296.22;4991567;28;20446;-41
2023/05/16 10:23:56;;;;;;;3.00;1.30;;;;;;;17.27;100.00;102284.88;4939977;28;20505;-42
2023/05/16 10:26:21;;;;;;;6.57;1.30;;;;;;;17.59;100.00;102277.47;4954751;28;20494;-42
2023/05/16 10:28:47;;;;;;;5.63;1.52;;;;;;;18.10;100.00;102227.44;4972485;28;20049;-40
2023/05/16 10:31:14;;;;;;;5.20;1.10;;;;;;;19.06;100.00;102273.00;4954662;28;20047;-41
2023/05/16 10:33:39;;;;;;;5.22;1.20;;;;;;;18.85;100.00;102222.44;4972063;28;20041;-43
2023/05/16 10:36:09;;;;;;;4.15;1.15;;;;;;;18.17;100.00;102234.25;4972163;28;20045;-43
2023/05/16 10:38:35;;;;;;;6.07;1.45;;;;;;;18.06;100.00;102231.19;4954898;28;20042;-42
2023/05/16 10:41:01;;;;;;;3.58;1.02;;;;;;;17.26;100.00;102268.94;4968469;28;20036;-43
2023/05/16 10:43:29;;;;;;;4.72;1.85;;;;;;;17.38;100.00;102272.03;4974164;28;20034;-40
2023/05/16 10:46:01;;;;;;;4.95;1.05;;;;;;;18.13;100.00;102259.28;4991551;28;20500;-43
2023/05/16 10:48:32;;;;;;;4.05;1.25;;;;;;;18.44;100.00;102254.44;4991246;28;20038;-42
2023/05/16 10:50:58;;;;;;;4.78;1.17;;;;;;;18.93;100.00;102212.28;4991154;28;20508;-42
2023/05/16 10:53:31;;;;;;;4.18;1.08;;;;;;;18.52;100.00;102280.78;4973977;28;20034;-42
2023/05/16 10:55:59;;;;;;;4.18;1.33;;;;;;;18.94;100.00;102264.72;4991386;28;20076;-42
2023/05/16 10:58:37;;;;;;;5.28;1.52;;;;;;;19.55;100.00;102262.81;4979564;28;20100;-43
2023/05/16 11:01:26;;;;;;;5.43;1.08;;;;;;;19.34;100.00;102261.09;4971935;28;20069;-42
2023/05/16 11:04:00;;;;;;;3.60;1.00;;;;;;;19.50;100.00;102270.13;4971663;28;20026;-41
2023/05/16 11:06:33;;;;;;;2.08;1.02;;;;;;;20.15;100.00;102266.97;4971711;28;20387;-39
2023/05/16 11:09:10;;;;;;;4.22;1.20;;;;;;;20.10;100.00;102277.03;4971638;28;20035;-42
2023/05/16 11:11:46;;;;;;;4.60;1.20;;;;;;;19.44;100.00;102230.41;4972067;28;20106;-41
2023/05/16 11:14:31;;;;;;;4.07;1.25;;;;;;;19.37;100.00;102263.63;4972108;28;20030;-41
2023/05/16 11:16:59;;;;;;;5.03;1.38;;;;;;;19.54;100.00;102277.97;4958188;28;20442;-42